Time;durP1;ratioP1;P1;durP2;ratioP2;P2;SDS_P1;SDS_P2;PMS_P1;PMS_P2;Temp;Humidity;BMP_temperature;BMP_pressure;BME280_temperature;BME280_humidity;BME280_pressure;Samples;Min_cycle;Max_cycle;Signal;HPM_P1;HPM_P2
2022/01/24 00:01:10;;;;;;;8.07;4.75;;;;;;;4.58;83.48;103169.31;4986666;28;20085;-74
2022/01/24 00:03:37;;;;;;;7.47;4.72;;;;;;;4.40;83.84;103167.00;4984638;28;20116;-74
2022/01/24 00:06:08;;;;;;;11.65;5.68;;;;;;;4.24;85.83;103164.63;4982657;28;20061;-74
2022/01/24 00:08:37;;;;;;;7.20;4.07;;;;;;;4.06;86.36;103167.53;4985006;28;20053;-74
2022/01/24 00:11:09;;;;;;;9.73;4.90;;;;;;;3.90;87.16;103168.59;4986525;28;20029;-73
2022/01/24 00:16:30;;;;;;;7.75;3.88;;;;;;;3.50;88.47;103162.19;4983436;28;20051;-74
2022/01/24 00:27:18;;;;;;;6.03;4.82;;;;;;;3.01;91.73;103177.44;4982141;28;20046;-74
2022/01/24 00:29:46;;;;;;;9.05;5.25;;;;;;;3.07;91.55;103180.00;4984883;28;20042;-73
2022/01/24 00:32:12;;;;;;;7.68;4.78;;;;;;;3.10;91.62;103182.56;4983683;28;20042;-74
2022/01/24 00:34:40;;;;;;;6.88;4.00;;;;;;;3.05;92.03;103179.16;4983166;28;20046;-73
2022/01/24 00:37:07;;;;;;;7.90;4.20;;;;;;;2.93;92.02;103174.06;4981434;28;20109;-74
2022/01/24 00:39:34;;;;;;;7.10;4.40;;;;;;;2.85;92.60;103181.06;4991561;28;20148;-73
2022/01/24 00:42:14;;;;;;;10.75;5.47;;;;;;;2.76;93.11;103171.63;4985105;28;20117;-76
2022/01/24 00:44:51;;;;;;;15.52;3.95;;;;;;;2.71;93.13;103172.56;4985092;28;20046;-73
2022/01/24 00:47:24;;;;;;;7.40;4.32;;;;;;;2.67;93.17;103176.03;4997627;28;20042;-74
2022/01/24 00:52:59;;;;;;;8.88;5.38;;;;;;;2.66;93.44;103180.38;5000593;28;20042;-73
2022/01/24 00:55:31;;;;;;;8.30;4.57;;;;;;;2.87;93.32;103171.53;4975856;28;20086;-73
2022/01/24 00:57:57;;;;;;;8.68;4.45;;;;;;;2.95;92.92;103168.00;4978393;28;20103;-72
2022/01/24 01:00:25;;;;;;;10.20;5.00;;;;;;;3.08;92.46;103168.75;4978515;28;20121;-73
2022/01/24 01:02:52;;;;;;;8.20;5.03;;;;;;;3.16;92.00;103163.44;4976803;28;20042;-73
2022/01/24 01:05:34;;;;;;;11.70;3.92;;;;;;;3.21;91.32;103161.66;4973548;28;20057;-74
2022/01/24 01:18:04;;;;;;;9.10;4.03;;;;;;;3.14;91.32;103156.53;4974671;28;20048;-73
2022/01/24 01:19:15;;;;;;;5.93;4.43;;;;;;;3.23;91.88;103156.44;4975255;28;20057;-74
2022/01/24 01:21:41;;;;;;;6.82;4.32;;;;;;;3.18;92.03;103161.69;4974674;28;20049;-73
2022/01/24 01:24:08;;;;;;;5.43;4.18;;;;;;;3.16;92.16;103155.63;4975756;28;20094;-73
2022/01/24 01:26:39;;;;;;;10.95;4.55;;;;;;;3.11;92.63;103159.19;4976035;28;20046;-75
2022/01/24 01:29:10;;;;;;;8.57;4.63;;;;;;;3.12;91.98;103144.47;4977146;28;20057;-73
2022/01/24 01:31:46;;;;;;;8.05;3.38;;;;;;;3.03;92.26;103144.56;4976947;28;20046;-73
2022/01/24 01:34:28;;;;;;;5.00;3.35;;;;;;;2.92;92.65;103141.19;4977628;28;20053;-73
2022/01/24 01:40:04;;;;;;;7.78;3.63;;;;;;;2.80;93.56;103159.50;4979765;28;20057;-73
2022/01/24 01:54:30;;;;;;;4.55;3.30;;;;;;;2.00;95.47;103146.28;4978840;28;20112;-73
2022/01/24 01:56:58;;;;;;;11.15;4.38;;;;;;;1.90;95.55;103152.41;4982546;28;20122;-74
2022/01/24 01:59:27;;;;;;;9.05;3.55;;;;;;;1.77;95.79;103152.47;4986765;28;20046;-73
2022/01/24 02:01:54;;;;;;;13.85;4.43;;;;;;;1.70;96.35;103158.56;4987626;28;20056;-73
2022/01/24 02:04:22;;;;;;;4.43;3.45;;;;;;;1.66;96.67;103155.13;4984376;28;20049;-73
2022/01/24 02:06:48;;;;;;;7.32;4.90;;;;;;;1.61;96.76;103156.84;4980890;28;20523;-73
2022/01/24 02:09:29;;;;;;;10.23;2.38;;;;;;;1.52;96.63;103157.78;4981401;28;20045;-72
2022/01/24 02:12:04;;;;;;;4.57;3.05;;;;;;;1.39;97.11;103151.78;4985420;28;20053;-73
2022/01/24 02:14:40;;;;;;;4.68;3.25;;;;;;;1.34;97.41;103157.84;4979203;28;20344;-72
2022/01/24 02:17:15;;;;;;;7.50;4.22;;;;;;;1.32;97.79;103155.22;4973543;28;20077;-73
2022/01/24 02:20:09;;;;;;;16.77;5.63;;;;;;;1.36;97.86;103150.91;4975081;28;20054;-72
2022/01/24 02:22:49;;;;;;;6.05;4.22;;;;;;;1.31;97.51;103153.53;4979269;28;20177;-73
2022/01/24 02:27:44;;;;;;;5.93;3.58;;;;;;;1.21;97.61;103153.53;5167502;27;20422;-73
2022/01/24 02:30:51;;;;;;;6.18;4.15;;;;;;;1.22;98.23;103147.50;5150768;27;20069;-73
2022/01/24 02:33:18;;;;;;;6.18;4.03;;;;;;;1.15;97.85;103133.72;5146970;27;20038;-74
2022/01/24 02:35:46;;;;;;;4.18;3.30;;;;;;;1.10;98.28;103134.63;5146775;27;20530;-73
2022/01/24 02:38:34;;;;;;;6.85;4.43;;;;;;;1.06;97.84;103131.19;5145025;27;20039;-74
2022/01/24 02:49:46;;;;;;;6.75;3.95;;;;;;;0.69;99.29;103118.31;5075112;27;20074;-73
2022/01/24 02:52:14;;;;;;;7.40;3.50;;;;;;;0.71;98.74;103126.06;5146934;27;20046;-73
2022/01/24 02:54:41;;;;;;;3.83;3.03;;;;;;;0.68;98.53;103134.69;5125027;27;20038;-75
2022/01/24 02:57:10;;;;;;;17.38;3.72;;;;;;;0.63;98.78;103127.78;5146376;27;20061;-74
2022/01/24 02:59:38;;;;;;;4.90;3.08;;;;;;;0.59;98.80;103123.47;5148963;27;20042;-74
2022/01/24 03:02:05;;;;;;;9.48;3.65;;;;;;;0.52;99.13;103109.72;5148017;27;20054;-73
2022/01/24 03:04:32;;;;;;;6.05;2.67;;;;;;;0.56;99.78;103124.34;5151877;27;20107;-73
2022/01/24 03:06:59;;;;;;;5.68;3.00;;;;;;;0.54;99.61;103120.88;5148115;27;20038;-74
2022/01/24 03:09:25;;;;;;;5.05;3.78;;;;;;;0.52;99.75;103120.06;5153465;27;20045;-74
2022/01/24 03:12:02;;;;;;;5.55;3.28;;;;;;;0.47;99.42;103120.91;5153551;27;20035;-72
2022/01/24 03:14:34;;;;;;;5.70;3.63;;;;;;;0.44;99.46;103131.25;5152204;27;20043;-74
2022/01/24 03:17:04;;;;;;;6.55;2.72;;;;;;;0.42;99.56;103125.19;5154599;27;20042;-73
2022/01/24 03:19:30;;;;;;;6.45;3.22;;;;;;;0.39;99.26;103131.25;5131620;27;20047;-73
2022/01/24 03:21:57;;;;;;;7.55;3.45;;;;;;;0.37;99.30;103135.53;5152432;27;20034;-74
2022/01/24 03:24:23;;;;;;;5.18;3.05;;;;;;;0.29;99.53;103126.06;5156894;27;20095;-73
2022/01/24 03:26:50;;;;;;;14.07;3.88;;;;;;;0.25;99.31;103130.38;5162237;27;20065;-74
2022/01/24 03:29:17;;;;;;;4.60;3.05;;;;;;;0.29;99.37;103137.25;5166082;27;20063;-74
2022/01/24 03:31:45;;;;;;;3.00;2.40;;;;;;;0.32;100.00;103126.94;5142052;27;20378;-73
2022/01/24 03:34:14;;;;;;;8.70;3.28;;;;;;;0.39;100.00;103120.91;5144967;27;20041;-74
2022/01/24 03:39:07;;;;;;;4.80;2.95;;;;;;;0.47;100.00;103121.75;5065697;27;1198548;-73
2022/01/24 03:41:40;;;;;;;6.95;3.55;;;;;;;0.53;100.00;103119.19;5092477;28;20043;-73
2022/01/24 03:44:08;;;;;;;2.90;2.25;;;;;;;0.54;100.00;103118.31;5092952;28;20125;-73
2022/01/24 03:46:47;;;;;;;6.55;3.30;;;;;;;0.55;100.00;103120.03;5090100;28;20044;-73
2022/01/24 03:49:45;;;;;;;5.00;2.90;;;;;;;0.62;100.00;103119.16;5088313;28;20123;-73
2022/01/24 03:52:08;;;;;;;3.00;2.70;;;;;;;0.67;100.00;103114.88;5089032;28;20047;-73
2022/01/24 03:54:36;;;;;;;5.00;3.05;;;;;;;0.70;100.00;103124.34;5090651;28;20055;-74
2022/01/24 03:57:04;;;;;;;6.07;3.83;;;;;;;0.78;100.00;103123.44;5088662;28;20044;-73
2022/01/24 03:59:31;;;;;;;6.72;4.07;;;;;;;0.85;100.00;103122.59;5089347;28;20046;-74
2022/01/24 04:01:58;;;;;;;11.02;4.97;;;;;;;0.90;100.00;103128.59;5089714;28;20044;-74
2022/01/24 04:04:25;;;;;;;5.88;3.75;;;;;;;0.96;100.00;103118.25;5091843;28;20036;-73
2022/01/24 04:06:51;;;;;;;3.47;2.45;;;;;;;1.01;100.00;103121.69;5086829;28;20044;-73
2022/01/24 04:09:18;;;;;;;6.13;4.20;;;;;;;1.09;100.00;103122.53;5092026;28;20048;-74
2022/01/24 04:11:51;;;;;;;4.45;3.53;;;;;;;1.14;100.00;103129.44;5087597;28;20066;-74
2022/01/24 04:14:29;;;;;;;;;;;;;;;1.18;100.00;103122.50;5090546;28;20104;-74
2022/01/24 04:17:08;;;;;;;3.70;2.47;;;;;;;1.21;100.00;103119.91;5088873;28;20562;-73
2022/01/24 04:22:18;;;;;;;6.25;3.63;;;;;;;1.26;100.00;103118.16;5057771;28;20075;-74
2022/01/24 04:24:47;;;;;;;5.07;3.60;;;;;;;1.29;100.00;103112.97;5090786;28;20119;-73
2022/01/24 04:27:15;;;;;;;5.20;3.30;;;;;;;1.26;100.00;103105.22;5091307;28;20039;-73
2022/01/24 04:29:43;;;;;;;4.25;2.63;;;;;;;1.27;100.00;103106.94;5091386;28;20053;-74
2022/01/24 04:32:10;;;;;;;7.32;4.60;;;;;;;1.28;100.00;103112.13;5088474;28;20039;-73
2022/01/24 04:34:36;;;;;;;5.20;3.13;;;;;;;1.27;100.00;103110.38;5090504;28;20090;-74
2022/01/24 04:37:04;;;;;;;6.45;3.08;;;;;;;1.26;100.00;103113.00;5088619;28;20054;-74
2022/01/24 04:39:30;;;;;;;4.85;4.15;;;;;;;1.19;100.00;103117.31;5090312;28;20071;-73
2022/01/24 04:42:06;;;;;;;7.20;4.20;;;;;;;1.11;99.54;103113.00;5091344;28;22002;-73
2022/01/24 04:44:51;;;;;;;4.07;2.85;;;;;;;0.94;99.93;103109.66;5088934;28;20051;-73
2022/01/24 04:47:24;;;;;;;5.18;2.85;;;;;;;0.75;99.33;103113.13;5090184;28;20050;-73
2022/01/24 04:52:43;;;;;;;6.25;2.92;;;;;;;0.53;99.34;103106.28;5077758;28;20052;-74
2022/01/24 04:57:47;;;;;;;3.88;2.70;;;;;;;0.41;99.64;103111.44;5110128;27;20426;-73
2022/01/24 05:00:15;;;;;;;4.38;3.25;;;;;;;0.36;99.68;103117.47;5104826;28;20819;-74
2022/01/24 05:02:43;;;;;;;4.53;2.33;;;;;;;0.24;99.95;103120.91;5106071;28;20043;-74
2022/01/24 05:05:15;;;;;;;3.58;2.72;;;;;;;0.18;99.92;103118.31;5109502;28;20043;-73
2022/01/24 05:07:41;;;;;;;5.65;3.90;;;;;;;0.10;99.89;103124.31;5106816;28;20130;-73
2022/01/24 05:10:16;;;;;;;6.47;4.07;;;;;;;0.06;100.00;103123.47;5105411;28;20054;-72
2022/01/24 05:21:39;;;;;;;7.32;2.85;;;;;;;0.01;100.00;103142.41;5020757;28;20137;-72
2022/01/24 05:24:05;;;;;;;6.15;3.42;;;;;;;0.01;100.00;103132.94;5083455;27;20056;-73
2022/01/24 05:26:32;;;;;;;3.80;2.33;;;;;;;0.07;100.00;103129.50;5108007;27;20075;-74
2022/01/24 05:28:59;;;;;;;5.68;2.42;;;;;;;0.07;100.00;103125.19;5108007;28;20045;-72
2022/01/24 05:31:27;;;;;;;4.90;3.42;;;;;;;0.11;100.00;103132.09;5105502;28;20165;-73
2022/01/24 05:33:53;;;;;;;3.00;2.75;;;;;;;0.22;100.00;103134.69;5107619;28;20036;-74
2022/01/24 05:36:20;;;;;;;6.68;2.35;;;;;;;0.21;100.00;103133.81;5105943;28;20032;-70
2022/01/24 05:38:46;;;;;;;6.82;2.47;;;;;;;0.25;100.00;103135.56;5103851;28;20046;-72
2022/01/24 05:41:13;;;;;;;2.92;2.35;;;;;;;0.27;100.00;103130.38;5105763;28;20146;-71
2022/01/24 05:43:42;;;;;;;4.32;2.55;;;;;;;0.31;100.00;103127.78;5099243;28;20043;-72
2022/01/24 05:46:08;;;;;;;3.40;2.33;;;;;;;0.38;100.00;103126.94;5116157;27;20048;-72
2022/01/24 05:48:36;;;;;;;4.75;3.13;;;;;;;0.42;100.00;103128.66;5103200;28;20234;-72
2022/01/24 05:51:03;;;;;;;4.45;3.28;;;;;;;0.41;100.00;103116.59;5108977;28;20048;-75
2022/01/24 05:53:30;;;;;;;2.92;2.63;;;;;;;0.54;100.00;103133.81;5104904;28;20131;-71
2022/01/24 05:55:56;;;;;;;2.75;2.22;;;;;;;0.58;100.00;103130.38;5107204;28;20142;-72
2022/01/24 05:58:23;;;;;;;3.20;2.00;;;;;;;0.68;100.00;103136.41;5104706;28;20039;-71
2022/01/24 06:00:52;;;;;;;4.03;3.25;;;;;;;0.72;100.00;103133.81;5111507;28;20096;-72
2022/01/24 06:03:20;;;;;;;4.78;2.95;;;;;;;0.80;100.00;103142.41;5123549;28;20072;-74
2022/01/24 06:05:49;;;;;;;3.65;2.25;;;;;;;0.85;100.00;103136.38;5124558;27;20397;-73
2022/01/24 06:08:16;;;;;;;4.68;2.70;;;;;;;0.93;100.00;103139.81;5111065;28;20068;-74
2022/01/24 06:10:44;;;;;;;4.68;2.70;;;;;;;1.03;100.00;103145.81;5104422;27;20090;-72
2022/01/24 06:13:11;;;;;;;4.75;3.25;;;;;;;1.07;100.00;103147.56;5087131;28;20052;-70
2022/01/24 06:15:38;;;;;;;13.98;4.28;;;;;;;1.16;100.00;103147.53;5092682;28;20043;-71
2022/01/24 06:18:04;;;;;;;5.57;3.22;;;;;;;1.21;100.00;103140.59;5089508;28;20064;-73
2022/01/24 06:20:31;;;;;;;5.97;2.70;;;;;;;1.29;100.00;103144.03;5088109;28;20032;-76
2022/01/24 06:22:59;;;;;;;6.68;4.38;;;;;;;1.33;100.00;103135.41;5092095;28;20051;-73
2022/01/24 06:25:25;;;;;;;7.72;4.57;;;;;;;1.34;100.00;103131.94;5094512;27;20043;-72
2022/01/24 06:27:52;;;;;;;4.18;3.10;;;;;;;1.36;100.00;103131.06;5088629;28;20532;-72
2022/01/24 06:30:19;;;;;;;4.85;3.05;;;;;;;1.39;100.00;103132.78;5089269;28;20257;-73
2022/01/24 06:32:46;;;;;;;5.03;3.20;;;;;;;1.43;100.00;103142.28;5091961;28;20541;-73
2022/01/24 06:35:14;;;;;;;9.35;4.38;;;;;;;1.49;100.00;103135.31;5091617;28;20047;-72
2022/01/24 06:37:42;;;;;;;3.42;2.83;;;;;;;1.52;100.00;103132.72;5095625;28;20039;-73
2022/01/24 06:40:11;;;;;;;5.22;2.47;;;;;;;1.57;100.00;103130.13;5090865;28;20596;-72
2022/01/24 06:42:38;;;;;;;3.90;2.65;;;;;;;1.60;100.00;103124.03;5091786;28;20043;-72
2022/01/24 06:45:05;;;;;;;4.93;3.42;;;;;;;1.66;100.00;103136.97;5090812;28;20036;-72
2022/01/24 06:47:32;;;;;;;5.93;4.18;;;;;;;1.67;100.00;103133.53;5093448;28;20057;-72
2022/01/24 06:49:59;;;;;;;6.53;3.65;;;;;;;1.76;100.00;103133.47;5091283;28;20048;-73
2022/01/24 06:52:26;;;;;;;2.25;2.05;;;;;;;1.79;99.94;103133.44;5086308;28;20126;-72
2022/01/24 06:54:52;;;;;;;5.22;2.72;;;;;;;1.84;99.47;103136.00;5092727;28;20048;-72
2022/01/24 06:57:20;;;;;;;6.40;3.35;;;;;;;1.83;99.27;103124.81;5090995;28;21106;-73
2022/01/24 06:59:47;;;;;;;9.02;4.80;;;;;;;1.85;99.17;103122.19;5094921;28;20049;-72
2022/01/24 07:02:14;;;;;;;4.53;3.28;;;;;;;1.91;98.82;103128.22;5090892;28;20132;-72
2022/01/24 07:04:42;;;;;;;4.25;3.40;;;;;;;1.96;98.81;103131.63;5090784;28;20039;-73
2022/01/24 07:07:09;;;;;;;4.78;2.97;;;;;;;2.03;98.34;103132.44;5085818;28;20040;-73
2022/01/24 07:09:36;;;;;;;2.67;2.45;;;;;;;2.09;97.93;103135.00;5094266;28;20070;-68
2022/01/24 07:12:03;;;;;;;3.85;2.95;;;;;;;2.13;97.66;103134.13;5091345;28;20048;-68
2022/01/24 07:14:31;;;;;;;5.40;3.53;;;;;;;2.10;97.54;103134.97;5086799;28;20040;-68
2022/01/24 07:17:13;;;;;;;3.20;2.35;;;;;;;2.14;97.53;103131.50;5093247;28;20043;-69
2022/01/24 07:19:40;;;;;;;4.07;2.78;;;;;;;2.22;97.23;103134.91;5090880;28;20067;-68
2022/01/24 07:22:07;;;;;;;3.83;2.55;;;;;;;2.32;96.50;103138.28;5092885;28;20063;-67
2022/01/24 07:24:35;;;;;;;6.13;3.53;;;;;;;2.38;96.32;103136.50;5090017;27;20105;-69
2022/01/24 07:27:03;;;;;;;3.03;2.30;;;;;;;2.43;96.25;103139.91;5086118;28;20055;-69
2022/01/24 07:29:31;;;;;;;3.13;2.40;;;;;;;2.47;96.01;103136.44;5088057;28;20043;-70
2022/01/24 07:31:58;;;;;;;5.68;3.10;;;;;;;2.50;95.78;103136.44;5094130;28;20059;-67
2022/01/24 07:34:24;;;;;;;5.00;3.55;;;;;;;2.45;95.79;103133.88;5087423;28;20444;-68
2022/01/24 07:36:51;;;;;;;4.35;3.35;;;;;;;2.46;96.20;103142.50;5095972;28;20100;-68
2022/01/24 07:39:18;;;;;;;3.78;3.33;;;;;;;2.53;95.73;103139.84;5087343;28;20055;-68
2022/01/24 07:41:46;;;;;;;4.38;3.13;;;;;;;2.63;95.36;103149.25;5090388;28;20038;-69
2022/01/24 07:44:13;;;;;;;3.05;2.35;;;;;;;2.66;95.53;103144.03;5087234;28;20577;-67
2022/01/24 07:46:42;;;;;;;4.68;3.15;;;;;;;2.66;95.59;103144.03;5087600;28;20127;-68
2022/01/24 07:49:12;;;;;;;3.20;2.22;;;;;;;2.65;95.76;103142.31;5086763;28;20089;-69
2022/01/24 07:51:39;;;;;;;3.42;2.63;;;;;;;2.69;96.09;103148.34;5083935;28;20161;-72
2022/01/24 07:54:06;;;;;;;3.67;3.17;;;;;;;2.66;96.11;103148.38;5091836;28;20125;-72
2022/01/24 07:56:33;;;;;;;8.25;3.50;;;;;;;2.76;95.85;103145.69;5085435;28;20412;-73
2022/01/24 07:58:59;;;;;;;6.95;3.30;;;;;;;2.83;95.60;103157.72;5092390;28;20458;-73
2022/01/24 08:01:26;;;;;;;3.72;2.80;;;;;;;2.86;95.81;103157.72;5089178;28;20131;-73
2022/01/24 08:03:54;;;;;;;7.80;3.63;;;;;;;2.90;95.64;103153.34;5094885;28;20097;-72
2022/01/24 08:06:21;;;;;;;4.20;3.00;;;;;;;2.93;95.68;103161.97;5089706;28;20123;-72
2022/01/24 08:08:48;;;;;;;10.23;3.47;;;;;;;3.01;95.79;103156.69;5085407;28;20139;-73
2022/01/24 08:11:16;;;;;;;4.50;3.40;;;;;;;3.07;95.19;103161.84;5084600;28;20137;-72
2022/01/24 08:13:42;;;;;;;4.47;3.42;;;;;;;3.15;94.83;103162.63;5094515;28;20122;-73
2022/01/24 08:16:09;;;;;;;4.88;3.53;;;;;;;3.19;95.04;103173.81;5094943;28;20043;-73
2022/01/24 08:18:36;;;;;;;2.78;2.53;;;;;;;3.27;94.70;103166.78;5086516;28;20123;-73
2022/01/24 08:21:04;;;;;;;5.38;3.40;;;;;;;3.37;94.90;103159.75;5086158;28;20054;-73
2022/01/24 08:23:30;;;;;;;4.97;3.22;;;;;;;3.44;94.55;103162.25;5090524;28;20063;-73
2022/01/24 08:25:57;;;;;;;4.43;3.28;;;;;;;3.53;94.72;103163.91;5097748;28;20039;-73
2022/01/24 08:28:24;;;;;;;4.78;3.58;;;;;;;3.72;94.46;103171.47;5091468;28;20040;-75
2022/01/24 08:30:52;;;;;;;6.70;4.15;;;;;;;3.90;94.34;103175.53;5093209;28;20051;-74
2022/01/24 08:33:18;;;;;;;3.00;2.63;;;;;;;4.02;94.01;103163.22;5091938;28;20070;-74
2022/01/24 08:35:45;;;;;;;9.00;4.45;;;;;;;4.18;92.82;103159.53;5089241;28;20521;-73
2022/01/24 08:38:13;;;;;;;4.75;4.05;;;;;;;4.39;92.73;103161.81;5104455;28;20036;-74
2022/01/24 08:40:41;;;;;;;6.07;4.55;;;;;;;4.67;91.06;103163.09;5109745;28;20046;-72
2022/01/24 08:43:08;;;;;;;4.72;3.65;;;;;;;4.99;88.52;103151.22;5112562;28;20039;-74
2022/01/24 08:45:48;;;;;;;5.43;3.88;;;;;;;5.27;86.98;103162.84;5094147;28;20048;-75
2022/01/24 08:48:16;;;;;;;13.68;4.82;;;;;;;5.57;85.58;103153.56;5092405;28;20051;-74
2022/01/24 08:50:43;;;;;;;6.40;4.53;;;;;;;6.44;81.99;103148.97;5092278;28;20047;-73
2022/01/24 08:53:10;;;;;;;9.23;5.45;;;;;;;7.80;76.02;103150.47;5096086;28;20039;-73
2022/01/24 08:55:39;;;;;;;10.32;5.47;;;;;;;9.04;69.25;103142.88;5089881;28;20055;-72
2022/01/24 08:58:08;;;;;;;10.57;5.78;;;;;;;9.47;66.21;103135.19;5083438;28;20040;-75
2022/01/24 09:00:35;;;;;;;10.80;6.78;;;;;;;9.20;65.62;103145.81;5086405;28;20043;-73
2022/01/24 09:03:02;;;;;;;6.07;4.43;;;;;;;8.70;67.32;103136.22;5092240;28;20043;-73
2022/01/24 09:05:34;;;;;;;8.60;5.40;;;;;;;8.54;68.39;103137.63;5085775;28;20425;-72
2022/01/24 09:08:01;;;;;;;5.10;3.92;;;;;;;8.20;68.81;103136.16;5086840;28;20072;-73
2022/01/24 09:10:28;;;;;;;5.78;4.00;;;;;;;7.80;69.47;103145.25;5079488;28;20044;-72
2022/01/24 09:12:56;;;;;;;6.65;4.13;;;;;;;7.48;70.24;103142.72;5094131;28;20093;-73
2022/01/24 09:15:23;;;;;;;5.07;3.35;;;;;;;7.49;71.50;103147.03;5089698;28;20036;-74
2022/01/24 09:17:49;;;;;;;9.00;4.28;;;;;;;7.70;69.86;103138.56;5087029;28;20592;-76
2022/01/24 09:20:16;;;;;;;4.75;3.63;;;;;;;8.11;68.32;103142.50;5091429;28;20040;-74
2022/01/24 09:22:43;;;;;;;4.32;3.33;;;;;;;7.93;68.56;103143.06;5081442;28;20039;-74
2022/01/24 09:25:11;;;;;;;4.28;3.05;;;;;;;7.47;70.10;103147.06;5102585;28;20821;-74
2022/01/24 09:27:38;;;;;;;14.65;3.92;;;;;;;7.42;71.18;103140.28;5086814;28;20043;-72
2022/01/24 09:30:08;;;;;;;12.43;5.10;;;;;;;6.91;72.30;103144.28;5095762;28;20054;-73
2022/01/24 09:32:35;;;;;;;5.18;3.47;;;;;;;7.17;73.87;103149.69;5086937;28;20040;-73
2022/01/24 09:35:01;;;;;;;6.72;3.95;;;;;;;8.60;69.22;103137.44;5081657;28;20051;-74
2022/01/24 09:37:28;;;;;;;3.47;2.55;;;;;;;9.30;63.67;103126.22;5085079;28;20040;-75
2022/01/24 09:39:55;;;;;;;12.88;3.05;;;;;;;9.10;65.07;103134.81;5090988;28;20048;-75
2022/01/24 09:42:22;;;;;;;5.13;4.00;;;;;;;8.87;65.49;103131.28;5090697;28;20046;-73
2022/01/24 09:44:48;;;;;;;6.05;3.55;;;;;;;9.64;62.84;103123.13;5096043;28;20072;-72
2022/01/24 09:47:17;;;;;;;9.50;3.53;;;;;;;9.70;63.37;103125.56;5096510;28;20122;-73
2022/01/24 09:49:47;;;;;;;6.25;3.72;;;;;;;9.01;64.84;103136.88;5090660;28;20438;-73
2022/01/24 09:52:13;;;;;;;4.25;2.88;;;;;;;9.00;65.58;103137.78;5093979;28;20039;-74
2022/01/24 09:54:40;;;;;;;5.80;3.60;;;;;;;8.31;69.13;103140.16;5091913;28;20044;-73
2022/01/24 09:57:07;;;;;;;4.30;3.40;;;;;;;8.70;67.12;103138.84;5087552;28;20093;-72
2022/01/24 09:59:33;;;;;;;4.18;2.72;;;;;;;8.54;66.34;103139.38;5087828;28;20044;-74
2022/01/24 10:02:00;;;;;;;6.18;3.00;;;;;;;8.10;68.22;103145.16;5080275;28;20553;-70
2022/01/24 10:04:28;;;;;;;4.95;3.17;;;;;;;7.82;68.71;103141.66;5078240;28;20048;-72
2022/01/24 10:06:56;;;;;;;5.55;3.50;;;;;;;7.59;69.18;103141.50;5087946;28;20048;-70
2022/01/24 10:09:31;;;;;;;4.85;3.33;;;;;;;7.33;70.35;103137.91;5084292;28;20048;-73
2022/01/24 10:12:08;;;;;;;6.70;3.83;;;;;;;7.62;70.58;103136.19;5095995;28;20135;-74
2022/01/24 10:17:22;;;;;;;10.20;3.25;;;;;;;8.20;68.37;103130.94;5088322;28;20047;-73
2022/01/24 10:19:53;;;;;;;2.83;2.10;;;;;;;8.43;67.07;103141.53;5089337;28;20043;-72
2022/01/24 10:22:23;;;;;;;8.82;4.10;;;;;;;8.27;66.87;103142.91;5089985;28;20047;-73
2022/01/24 10:24:51;;;;;;;9.50;3.53;;;;;;;8.28;67.17;103121.91;5089035;28;20123;-72
2022/01/24 10:27:20;;;;;;;4.40;2.63;;;;;;;8.28;64.96;103126.31;5088771;28;20044;-72
2022/01/24 10:29:54;;;;;;;4.90;3.33;;;;;;;8.35;66.38;103141.75;5085382;28;20043;-73
2022/01/24 10:32:36;;;;;;;9.63;3.28;;;;;;;8.19;65.24;103132.69;5090912;28;20052;-73
2022/01/24 10:35:24;;;;;;;4.80;3.13;;;;;;;8.55;67.54;103134.13;5088131;28;20040;-70
2022/01/24 10:38:24;;;;;;;8.13;4.00;;;;;;;8.53;65.56;103116.75;5095478;28;20043;-74
2022/01/24 10:40:55;;;;;;;3.88;2.70;;;;;;;8.44;66.04;103125.75;5089872;28;20044;-72
2022/01/24 10:43:24;;;;;;;5.25;3.78;;;;;;;8.90;64.46;103125.94;5095625;28;20023;-74
2022/01/24 10:45:52;;;;;;;8.00;2.13;;;;;;;9.28;63.35;103117.56;5088511;28;20059;-73
2022/01/24 10:48:25;;;;;;;8.52;3.85;;;;;;;9.17;63.61;103109.22;5091337;28;20477;-73
2022/01/24 10:51:06;;;;;;;6.43;3.92;;;;;;;9.04;62.41;103115.81;5089446;28;20086;-74
2022/01/24 10:53:38;;;;;;;5.53;2.83;;;;;;;9.51;63.57;103113.19;5094826;28;20044;-73
2022/01/24 10:56:33;;;;;;;5.47;4.05;;;;;;;9.45;62.53;103109.94;5091615;28;20056;-74
2022/01/24 10:59:16;;;;;;;4.88;2.50;;;;;;;9.39;62.40;103110.16;5089781;28;20052;-74
2022/01/24 11:01:44;;;;;;;5.13;3.47;;;;;;;9.30;62.29;103100.00;5094307;28;20074;-73
2022/01/24 11:04:13;;;;;;;3.83;2.55;;;;;;;9.11;62.51;103102.41;5094804;28;20067;-74
2022/01/24 11:06:43;;;;;;;4.93;3.40;;;;;;;8.83;63.64;103090.34;5093117;28;20555;-73
2022/01/24 11:09:14;;;;;;;5.55;3.30;;;;;;;9.04;64.30;103097.47;5089043;28;20040;-75
2022/01/24 11:11:41;;;;;;;10.27;3.25;;;;;;;8.86;64.10;103092.84;5094374;28;20124;-73
2022/01/24 11:14:13;;;;;;;5.30;3.35;;;;;;;8.31;64.74;103098.25;5090987;28;20043;-74
2022/01/24 11:16:41;;;;;;;5.88;3.28;;;;;;;8.09;69.04;103097.19;5099460;28;20027;-75
2022/01/24 11:19:15;;;;;;;4.57;2.58;;;;;;;8.53;66.64;103086.16;5107728;28;20049;-73
2022/01/24 11:21:44;;;;;;;4.50;3.10;;;;;;;8.74;65.63;103088.03;5107055;28;20066;-73
2022/01/24 11:24:16;;;;;;;3.63;2.35;;;;;;;8.68;64.51;103080.38;5101687;27;20307;-73
2022/01/24 11:26:44;;;;;;;7.93;2.38;;;;;;;8.21;66.35;103080.25;5088405;27;20120;-72
2022/01/24 11:29:11;;;;;;;7.10;3.45;;;;;;;8.36;66.51;103079.78;5086824;28;20075;-73
2022/01/24 11:31:41;;;;;;;7.75;2.60;;;;;;;8.12;66.13;103085.78;5097624;28;20043;-73
2022/01/24 11:34:15;;;;;;;4.45;2.63;;;;;;;8.26;66.75;103076.59;5085092;28;20041;-74
2022/01/24 11:36:44;;;;;;;2.67;1.70;;;;;;;8.39;64.92;103072.66;5093500;28;20559;-72
2022/01/24 11:39:11;;;;;;;4.13;2.97;;;;;;;8.57;64.22;103076.44;5086121;28;20097;-74
2022/01/24 11:41:40;;;;;;;5.85;3.15;;;;;;;8.34;65.68;103071.09;5087492;28;20039;-74
2022/01/24 11:44:09;;;;;;;4.25;2.95;;;;;;;8.55;65.61;103080.84;5088270;28;20043;-73
2022/01/24 11:46:43;;;;;;;6.97;3.00;;;;;;;8.13;65.69;103074.38;5093954;28;20119;-74
2022/01/24 11:49:13;;;;;;;3.03;1.92;;;;;;;7.84;67.10;103086.69;5086753;28;20040;-73
2022/01/24 11:51:43;;;;;;;3.67;2.72;;;;;;;7.66;68.75;103088.09;5095051;28;20043;-73
2022/01/24 11:54:31;;;;;;;3.22;2.38;;;;;;;7.78;66.46;103076.38;5085942;28;20518;-73
2022/01/24 11:57:25;;;;;;;4.55;2.95;;;;;;;7.71;68.06;103072.25;5081793;28;20176;-72
2022/01/24 11:59:54;;;;;;;4.93;2.95;;;;;;;7.84;67.13;103073.59;5086590;28;20027;-75
2022/01/24 12:02:25;;;;;;;4.93;3.22;;;;;;;7.94;67.47;103065.41;5082710;28;20116;-72
2022/01/24 12:04:57;;;;;;;4.05;2.78;;;;;;;7.89;67.01;103066.47;5084171;28;20043;-73
2022/01/24 12:07:27;;;;;;;5.55;3.42;;;;;;;7.92;66.87;103058.53;5092953;28;20079;-73
2022/01/24 12:09:53;;;;;;;4.25;3.05;;;;;;;7.93;67.44;103054.06;5090878;28;20134;-72
2022/01/24 12:12:46;;;;;;;5.15;3.08;;;;;;;8.21;66.28;103060.19;5084946;28;20040;-71
2022/01/24 12:15:49;;;;;;;6.47;3.10;;;;;;;8.04;67.49;103064.22;5089705;28;20043;-72
2022/01/24 12:18:19;;;;;;;4.68;3.30;;;;;;;8.35;66.38;103057.94;5088547;28;20047;-73
2022/01/24 12:20:50;;;;;;;2.67;1.88;;;;;;;8.29;65.25;103060.78;5087518;28;20063;-72
2022/01/24 12:23:40;;;;;;;8.40;3.15;;;;;;;8.35;64.59;103055.34;5084138;27;20048;-73
2022/01/24 12:26:09;;;;;;;3.30;2.17;;;;;;;8.58;64.63;103039.69;5084721;28;20050;-72
2022/01/24 12:28:48;;;;;;;4.22;3.00;;;;;;;8.74;64.64;103051.34;5096236;28;20075;-71
2022/01/24 12:31:21;;;;;;;3.95;2.60;;;;;;;8.55;64.72;103060.78;5088009;28;20067;-73
2022/01/24 12:34:08;;;;;;;4.90;3.15;;;;;;;8.20;64.63;103057.63;5095342;28;20044;-70
2022/01/24 12:37:08;;;;;;;4.20;2.97;;;;;;;8.22;65.70;103050.56;5086342;28;20044;-70
2022/01/24 12:39:46;;;;;;;4.10;2.63;;;;;;;8.59;65.71;103040.56;5074555;28;20055;-73
2022/01/24 12:42:19;;;;;;;9.45;3.40;;;;;;;8.59;64.38;103044.03;5088708;28;21649;-69
2022/01/24 12:47:31;;;;;;;5.43;2.38;;;;;;;8.55;64.94;103041.56;5086205;28;20084;-69
2022/01/24 12:49:58;;;;;;;7.82;3.03;;;;;;;8.54;63.70;103047.69;5091155;28;20040;-73
2022/01/24 12:52:27;;;;;;;3.53;2.10;;;;;;;8.47;64.48;103051.44;5088451;28;20090;-71
2022/01/24 12:54:58;;;;;;;6.60;3.53;;;;;;;8.36;64.81;103043.94;5090933;28;20131;-70
2022/01/24 12:57:29;;;;;;;8.95;3.42;;;;;;;8.26;65.77;103034.69;5084861;28;20044;-74
2022/01/24 12:59:57;;;;;;;4.80;2.72;;;;;;;8.36;65.03;103038.72;5083044;28;20044;-69